sensor_id;sensor_type;location;lat;lon;timestamp;P1;durP1;ratioP1;P2;durP2;ratioP2
22861;SDS011;11598;50.652;6.172;2023-06-22T00:07:39;8.80;;;4.28;;
22861;SDS011;11598;50.652;6.172;2023-06-22T00:17:39;11.13;;;4.60;;
22861;SDS011;11598;50.652;6.172;2023-06-22T00:27:40;10.00;;;4.05;;
22861;SDS011;11598;50.652;6.172;2023-06-22T00:37:40;9.13;;;4.30;;
22861;SDS011;11598;50.652;6.172;2023-06-22T00:47:42;8.65;;;4.65;;
22861;SDS011;11598;50.652;6.172;2023-06-22T00:57:45;7.93;;;4.20;;
22861;SDS011;11598;50.652;6.172;2023-06-22T01:17:57;8.82;;;4.13;;
22861;SDS011;11598;50.652;6.172;2023-06-22T01:28:45;8.13;;;4.57;;
22861;SDS011;11598;50.652;6.172;2023-06-22T01:48:24;10.27;;;4.93;;
22861;SDS011;11598;50.652;6.172;2023-06-22T01:58:26;7.85;;;4.50;;
22861;SDS011;11598;50.652;6.172;2023-06-22T02:08:47;10.05;;;5.07;;
22861;SDS011;11598;50.652;6.172;2023-06-22T02:18:51;10.38;;;4.88;;
22861;SDS011;11598;50.652;6.172;2023-06-22T02:28:51;9.80;;;5.13;;
22861;SDS011;11598;50.652;6.172;2023-06-22T02:38:52;10.00;;;5.70;;
22861;SDS011;11598;50.652;6.172;2023-06-22T02:48:54;10.05;;;6.63;;
22861;SDS011;11598;50.652;6.172;2023-06-22T02:58:54;11.00;;;6.75;;
22861;SDS011;11598;50.652;6.172;2023-06-22T03:09:01;12.50;;;7.25;;
22861;SDS011;11598;50.652;6.172;2023-06-22T03:19:03;10.47;;;5.93;;
22861;SDS011;11598;50.652;6.172;2023-06-22T03:29:04;13.05;;;8.05;;
22861;SDS011;11598;50.652;6.172;2023-06-22T03:39:04;12.00;;;8.88;;
22861;SDS011;11598;50.652;6.172;2023-06-22T03:49:04;11.80;;;6.43;;
22861;SDS011;11598;50.652;6.172;2023-06-22T03:59:05;13.25;;;7.47;;
22861;SDS011;11598;50.652;6.172;2023-06-22T04:09:05;10.57;;;6.88;;
22861;SDS011;11598;50.652;6.172;2023-06-22T04:19:06;13.30;;;8.18;;
22861;SDS011;11598;50.652;6.172;2023-06-22T04:29:07;12.32;;;8.80;;
22861;SDS011;11598;50.652;6.172;2023-06-22T04:39:09;11.60;;;8.48;;
22861;SDS011;11598;50.652;6.172;2023-06-22T04:49:10;14.60;;;10.68;;
22861;SDS011;11598;50.652;6.172;2023-06-22T04:59:11;13.40;;;8.82;;
22861;SDS011;11598;50.652;6.172;2023-06-22T05:09:13;12.23;;;7.35;;
22861;SDS011;11598;50.652;6.172;2023-06-22T05:19:13;10.73;;;7.03;;
22861;SDS011;11598;50.652;6.172;2023-06-22T05:29:13;10.30;;;6.97;;
22861;SDS011;11598;50.652;6.172;2023-06-22T05:39:14;10.07;;;7.32;;
22861;SDS011;11598;50.652;6.172;2023-06-22T05:49:15;13.25;;;7.43;;
22861;SDS011;11598;50.652;6.172;2023-06-22T05:59:16;12.20;;;7.40;;
22861;SDS011;11598;50.652;6.172;2023-06-22T06:09:16;11.50;;;5.47;;
22861;SDS011;11598;50.652;6.172;2023-06-22T06:19:17;9.87;;;7.10;;
22861;SDS011;11598;50.652;6.172;2023-06-22T06:29:18;9.85;;;7.97;;
22861;SDS011;11598;50.652;6.172;2023-06-22T06:39:19;12.77;;;8.63;;
22861;SDS011;11598;50.652;6.172;2023-06-22T06:49:20;15.98;;;7.05;;
22861;SDS011;11598;50.652;6.172;2023-06-22T06:59:20;13.32;;;7.60;;
22861;SDS011;11598;50.652;6.172;2023-06-22T07:09:21;9.75;;;5.90;;
22861;SDS011;11598;50.652;6.172;2023-06-22T07:19:25;10.65;;;6.07;;
22861;SDS011;11598;50.652;6.172;2023-06-22T07:29:26;10.98;;;5.55;;
22861;SDS011;11598;50.652;6.172;2023-06-22T07:39:27;10.32;;;6.90;;
22861;SDS011;11598;50.652;6.172;2023-06-22T07:49:28;8.38;;;6.30;;
22861;SDS011;11598;50.652;6.172;2023-06-22T07:59:29;8.85;;;6.50;;
22861;SDS011;11598;50.652;6.172;2023-06-22T08:09:30;12.00;;;7.20;;
22861;SDS011;11598;50.652;6.172;2023-06-22T08:19:31;9.23;;;6.53;;
22861;SDS011;11598;50.652;6.172;2023-06-22T08:29:32;8.30;;;5.75;;
22861;SDS011;11598;50.652;6.172;2023-06-22T08:39:32;9.65;;;7.03;;
22861;SDS011;11598;50.652;6.172;2023-06-22T08:49:33;9.13;;;7.27;;
22861;SDS011;11598;50.652;6.172;2023-06-22T08:59:33;9.13;;;7.10;;
22861;SDS011;11598;50.652;6.172;2023-06-22T09:23:08;9.70;;;7.53;;
22861;SDS011;11598;50.652;6.172;2023-06-22T09:33:08;12.10;;;8.68;;
22861;SDS011;11598;50.652;6.172;2023-06-22T09:43:08;19.10;;;13.48;;
22861;SDS011;11598;50.652;6.172;2023-06-22T09:53:09;17.08;;;13.82;;
22861;SDS011;11598;50.652;6.172;2023-06-22T10:03:09;31.48;;;18.35;;
22861;SDS011;11598;50.652;6.172;2023-06-22T10:13:10;24.17;;;18.15;;
22861;SDS011;11598;50.652;6.172;2023-06-22T10:23:11;27.67;;;20.83;;
22861;SDS011;11598;50.652;6.172;2023-06-22T10:33:11;19.98;;;17.70;;
22861;SDS011;11598;50.652;6.172;2023-06-22T10:43:12;32.65;;;25.23;;
22861;SDS011;11598;50.652;6.172;2023-06-22T10:53:12;29.52;;;22.70;;
22861;SDS011;11598;50.652;6.172;2023-06-22T11:03:13;30.27;;;23.83;;
22861;SDS011;11598;50.652;6.172;2023-06-22T11:13:14;29.67;;;24.92;;
22861;SDS011;11598;50.652;6.172;2023-06-22T11:23:14;24.77;;;20.85;;
22861;SDS011;11598;50.652;6.172;2023-06-22T11:33:14;27.65;;;23.80;;
22861;SDS011;11598;50.652;6.172;2023-06-22T11:43:15;24.17;;;19.63;;
22861;SDS011;11598;50.652;6.172;2023-06-22T11:53:15;23.20;;;18.77;;
22861;SDS011;11598;50.652;6.172;2023-06-22T12:03:17;18.98;;;14.68;;
22861;SDS011;11598;50.652;6.172;2023-06-22T12:13:18;14.77;;;12.93;;
22861;SDS011;11598;50.652;6.172;2023-06-22T12:23:19;18.38;;;16.08;;
22861;SDS011;11598;50.652;6.172;2023-06-22T12:33:19;19.13;;;15.73;;
22861;SDS011;11598;50.652;6.172;2023-06-22T12:43:20;17.88;;;13.40;;
22861;SDS011;11598;50.652;6.172;2023-06-22T12:53:20;15.48;;;13.85;;
22861;SDS011;11598;50.652;6.172;2023-06-22T13:03:22;15.82;;;14.23;;
22861;SDS011;11598;50.652;6.172;2023-06-22T13:13:25;15.25;;;12.73;;
22861;SDS011;11598;50.652;6.172;2023-06-22T13:23:27;17.45;;;13.25;;
22861;SDS011;11598;50.652;6.172;2023-06-22T13:33:27;21.77;;;17.85;;
22861;SDS011;11598;50.652;6.172;2023-06-22T13:43:27;25.48;;;21.00;;
22861;SDS011;11598;50.652;6.172;2023-06-22T13:53:28;24.20;;;20.33;;
22861;SDS011;11598;50.652;6.172;2023-06-22T14:03:28;21.83;;;18.70;;
22861;SDS011;11598;50.652;6.172;2023-06-22T14:13:28;26.55;;;21.48;;
22861;SDS011;11598;50.652;6.172;2023-06-22T14:23:29;21.27;;;18.60;;
22861;SDS011;11598;50.652;6.172;2023-06-22T14:33:29;30.02;;;25.85;;
22861;SDS011;11598;50.652;6.172;2023-06-22T14:43:29;68.53;;;41.35;;
22861;SDS011;11598;50.652;6.172;2023-06-22T14:53:30;220.32;;;55.38;;
22861;SDS011;11598;50.652;6.172;2023-06-22T15:03:30;57.63;;;39.50;;
22861;SDS011;11598;50.652;6.172;2023-06-22T15:13:32;9.52;;;4.05;;
22861;SDS011;11598;50.652;6.172;2023-06-22T15:23:34;12.43;;;4.00;;
22861;SDS011;11598;50.652;6.172;2023-06-22T15:33:34;10.15;;;4.78;;
22861;SDS011;11598;50.652;6.172;2023-06-22T15:43:36;8.30;;;3.03;;
22861;SDS011;11598;50.652;6.172;2023-06-22T15:53:37;8.55;;;3.40;;
22861;SDS011;11598;50.652;6.172;2023-06-22T16:03:37;13.30;;;3.60;;
22861;SDS011;11598;50.652;6.172;2023-06-22T16:13:38;12.50;;;3.70;;
22861;SDS011;11598;50.652;6.172;2023-06-22T16:23:39;8.23;;;3.30;;
22861;SDS011;11598;50.652;6.172;2023-06-22T16:33:39;9.18;;;5.25;;
22861;SDS011;11598;50.652;6.172;2023-06-22T16:53:44;70.95;;;33.00;;
22861;SDS011;11598;50.652;6.172;2023-06-22T17:03:47;48.17;;;20.27;;
22861;SDS011;11598;50.652;6.172;2023-06-22T17:13:57;509.60;;;45.00;;
22861;SDS011;11598;50.652;6.172;2023-06-22T17:23:57;496.85;;;49.00;;
22861;SDS011;11598;50.652;6.172;2023-06-22T17:34:05;230.98;;;39.33;;
22861;SDS011;11598;50.652;6.172;2023-06-22T17:44:07;280.27;;;40.45;;
22861;SDS011;11598;50.652;6.172;2023-06-22T17:54:08;1353.28;;;64.65;;
22861;SDS011;11598;50.652;6.172;2023-06-22T18:04:12;923.78;;;50.67;;
22861;SDS011;11598;50.652;6.172;2023-06-22T18:14:15;101.15;;;14.43;;
22861;SDS011;11598;50.652;6.172;2023-06-22T18:24:17;179.35;;;17.58;;
22861;SDS011;11598;50.652;6.172;2023-06-22T18:34:18;340.30;;;20.42;;
22861;SDS011;11598;50.652;6.172;2023-06-22T18:44:26;71.13;;;11.95;;
22861;SDS011;11598;50.652;6.172;2023-06-22T19:04:35;50.35;;;13.07;;
22861;SDS011;11598;50.652;6.172;2023-06-22T19:14:36;45.03;;;14.37;;
22861;SDS011;11598;50.652;6.172;2023-06-22T19:24:49;88.38;;;22.13;;
22861;SDS011;11598;50.652;6.172;2023-06-22T19:34:50;82.77;;;22.13;;
22861;SDS011;11598;50.652;6.172;2023-06-22T19:44:50;46.20;;;22.10;;
22861;SDS011;11598;50.652;6.172;2023-06-22T19:54:51;154.20;;;30.05;;
22861;SDS011;11598;50.652;6.172;2023-06-22T20:04:51;180.52;;;36.90;;
22861;SDS011;11598;50.652;6.172;2023-06-22T20:14:52;186.50;;;43.95;;
22861;SDS011;11598;50.652;6.172;2023-06-22T20:24:53;202.55;;;44.20;;
22861;SDS011;11598;50.652;6.172;2023-06-22T20:34:54;209.88;;;49.90;;
22861;SDS011;11598;50.652;6.172;2023-06-22T20:44:54;304.02;;;57.97;;
22861;SDS011;11598;50.652;6.172;2023-06-22T20:54:54;175.35;;;50.78;;
22861;SDS011;11598;50.652;6.172;2023-06-22T21:04:55;240.63;;;44.03;;
22861;SDS011;11598;50.652;6.172;2023-06-22T21:14:55;323.83;;;59.58;;
22861;SDS011;11598;50.652;6.172;2023-06-22T21:35:08;337.52;;;64.28;;
22861;SDS011;11598;50.652;6.172;2023-06-22T21:45:12;136.32;;;51.35;;
22861;SDS011;11598;50.652;6.172;2023-06-22T21:55:12;363.63;;;68.82;;
22861;SDS011;11598;50.652;6.172;2023-06-22T22:05:12;151.98;;;51.90;;
22861;SDS011;11598;50.652;6.172;2023-06-22T22:15:13;276.10;;;58.65;;
22861;SDS011;11598;50.652;6.172;2023-06-22T22:25:13;534.15;;;77.05;;
22861;SDS011;11598;50.652;6.172;2023-06-22T22:35:14;336.77;;;55.03;;
22861;SDS011;11598;50.652;6.172;2023-06-22T22:45:14;554.92;;;63.63;;
22861;SDS011;11598;50.652;6.172;2023-06-22T22:55:15;411.55;;;73.15;;
22861;SDS011;11598;50.652;6.172;2023-06-22T23:05:17;177.32;;;61.55;;
22861;SDS011;11598;50.652;6.172;2023-06-22T23:15:18;424.40;;;78.18;;
22861;SDS011;11598;50.652;6.172;2023-06-22T23:25:19;420.85;;;80.65;;
22861;SDS011;11598;50.652;6.172;2023-06-22T23:35:19;433.27;;;78.80;;
22861;SDS011;11598;50.652;6.172;2023-06-22T23:45:19;531.47;;;80.32;;
22861;SDS011;11598;50.652;6.172;2023-06-22T23:55:20;426.20;;;72.33;;
